createdAt,value
2019-05-07T00:00:32.890Z,12.78
2019-05-07T00:03:03.332Z,11.85
2019-05-07T00:05:33.183Z,12.15
2019-05-07T00:08:02.971Z,12.43
2019-05-07T00:10:33.171Z,13.08
2019-05-07T00:13:02.275Z,13.75
2019-05-07T00:15:32.822Z,12.75
2019-05-07T00:18:02.970Z,12.20
2019-05-07T00:20:32.539Z,13.35
2019-05-07T00:23:02.751Z,13.25
2019-05-07T00:25:32.781Z,13.18
2019-05-07T00:28:02.583Z,12.85
2019-05-07T00:30:32.972Z,13.80
2019-05-07T00:33:02.582Z,14.47
2019-05-07T00:35:35.200Z,13.43
2019-05-07T00:38:08.027Z,13.72
2019-05-07T00:40:43.614Z,13.05
2019-05-07T00:43:13.482Z,12.68
2019-05-07T00:45:46.102Z,14.40
2019-05-07T00:48:14.317Z,13.53
2019-05-07T00:50:44.178Z,14.18
2019-05-07T00:53:13.106Z,13.55
2019-05-07T00:55:42.325Z,14.38
2019-05-07T00:58:13.082Z,13.50
2019-05-07T01:00:42.041Z,14.25
2019-05-07T01:03:12.614Z,13.23
2019-05-07T01:05:40.376Z,14.30
2019-05-07T01:08:08.600Z,13.78
2019-05-07T01:10:36.826Z,14.35
2019-05-07T01:13:05.048Z,15.18
2019-05-07T01:15:34.618Z,15.25
2019-05-07T01:18:03.177Z,14.30
2019-05-07T01:20:32.958Z,14.50
2019-05-07T01:23:02.648Z,14.30
2019-05-07T01:25:32.848Z,14.20
2019-05-07T01:28:02.618Z,13.28
2019-05-07T01:30:32.451Z,13.58
2019-05-07T01:33:02.896Z,13.88
2019-05-07T01:35:32.805Z,13.53
2019-05-07T01:38:02.999Z,13.98
2019-05-07T01:40:32.362Z,13.93
2019-05-07T01:43:02.549Z,14.38
2019-05-07T01:45:43.203Z,14.63
2019-05-07T01:48:04.188Z,14.45
2019-05-07T01:50:32.257Z,14.58
2019-05-07T01:53:00.487Z,15.15
2019-05-07T01:55:28.704Z,14.63
2019-05-07T01:57:56.905Z,15.85
2019-05-07T02:00:25.139Z,15.95
2019-05-07T02:02:54.978Z,16.52
2019-05-07T02:05:32.654Z,16.83
2019-05-07T02:08:02.951Z,15.18
2019-05-07T02:13:02.286Z,15.58
2019-05-07T02:15:32.288Z,15.20
2019-05-07T02:18:01.983Z,15.00
2019-05-07T02:20:32.141Z,16.65
2019-05-07T02:23:02.576Z,15.75
2019-05-07T02:25:32.540Z,16.17
2019-05-07T02:28:02.157Z,15.50
2019-05-07T02:30:30.630Z,15.60
2019-05-07T02:32:58.872Z,15.53
2019-05-07T02:35:27.188Z,16.23
2019-05-07T02:37:57.214Z,15.45
2019-05-07T02:40:27.094Z,15.75
2019-05-07T02:42:55.329Z,14.93
2019-05-07T02:45:25.186Z,15.08
2019-05-07T02:47:53.420Z,16.10
2019-05-07T02:50:23.263Z,16.20
2019-05-07T02:52:53.892Z,15.17
2019-05-07T02:58:03.555Z,15.30
2019-05-07T03:00:33.380Z,16.42
2019-05-07T03:03:04.057Z,15.48
2019-05-07T03:05:34.881Z,15.43
2019-05-07T03:08:03.351Z,14.68
2019-05-07T03:10:34.085Z,14.85
2019-05-07T03:13:02.989Z,15.25
2019-05-07T03:15:33.186Z,13.67
2019-05-07T03:18:03.384Z,14.73
2019-05-07T03:20:36.881Z,16.15
2019-05-07T03:23:05.494Z,14.53
2019-05-07T03:25:35.341Z,15.45
2019-05-07T03:28:04.388Z,15.10
2019-05-07T03:30:37.381Z,15.68
2019-05-07T03:33:07.873Z,15.83
2019-05-07T03:35:38.307Z,17.00
2019-05-07T03:38:06.643Z,17.92
2019-05-07T03:40:36.141Z,16.67
2019-05-07T03:43:06.059Z,14.83
2019-05-07T03:45:38.960Z,15.90
2019-05-07T03:48:14.531Z,16.42
2019-05-07T03:50:43.333Z,13.95
2019-05-07T03:53:14.175Z,15.68
2019-05-07T03:55:44.630Z,16.50
2019-05-07T03:58:14.624Z,16.23
2019-05-07T04:00:44.157Z,16.07
2019-05-07T04:03:13.958Z,16.62
2019-05-07T04:05:43.294Z,16.85
2019-05-07T04:08:13.159Z,17.07
2019-05-07T04:10:44.263Z,18.85
2019-05-07T04:13:13.318Z,17.57
2019-05-07T04:15:43.955Z,16.12
2019-05-07T04:18:13.080Z,15.60
2019-05-07T04:20:43.593Z,16.17
2019-05-07T04:23:13.850Z,16.07
2019-05-07T04:25:48.742Z,16.25
2019-05-07T04:28:23.533Z,16.77
2019-05-07T04:30:53.307Z,14.70
2019-05-07T04:33:25.965Z,14.63
2019-05-07T04:36:02.827Z,14.07
2019-05-07T04:38:33.442Z,13.55
2019-05-07T04:41:03.819Z,14.75
2019-05-07T04:43:33.595Z,13.85
2019-05-07T04:46:03.274Z,14.40
2019-05-07T04:48:33.760Z,14.30
2019-05-07T04:51:03.500Z,14.38
2019-05-07T04:53:32.856Z,14.87
2019-05-07T04:56:03.334Z,14.50
2019-05-07T04:58:33.845Z,14.20
2019-05-07T05:01:03.239Z,14.73
2019-05-07T05:03:33.979Z,14.35
2019-05-07T05:06:02.696Z,14.20
2019-05-07T05:08:32.559Z,14.60
2019-05-07T05:11:03.383Z,14.18
2019-05-07T05:13:32.964Z,15.20
2019-05-07T05:16:02.604Z,15.13
2019-05-07T05:18:32.811Z,15.33
2019-05-07T05:21:17.403Z,16.23
2019-05-07T05:23:47.280Z,17.48
2019-05-07T05:26:15.483Z,16.75
2019-05-07T05:28:43.700Z,17.67
2019-05-07T05:31:12.652Z,17.90
2019-05-07T05:33:41.960Z,17.17
2019-05-07T05:36:12.467Z,17.02
2019-05-07T05:38:42.360Z,17.35
2019-05-07T05:41:12.295Z,17.17
2019-05-07T05:43:42.589Z,17.85
2019-05-07T05:46:12.528Z,16.30
2019-05-07T05:48:42.533Z,17.25
2019-05-07T05:51:24.537Z,16.42
2019-05-07T05:54:01.914Z,15.98
2019-05-07T05:56:34.308Z,16.35
2019-05-07T05:59:06.928Z,15.35
2019-05-07T06:01:52.302Z,15.28
2019-05-07T06:04:25.100Z,16.10
2019-05-07T06:07:14.044Z,14.83
2019-05-07T06:09:58.852Z,15.88
2019-05-07T06:12:37.508Z,16.73
2019-05-07T06:15:13.949Z,15.53
2019-05-07T06:17:59.967Z,14.87
2019-05-07T06:20:35.752Z,15.15
2019-05-07T06:23:17.573Z,15.28
2019-05-07T06:25:47.432Z,15.80
2019-05-07T06:28:15.661Z,15.95
2019-05-07T06:30:43.882Z,15.58
2019-05-07T06:33:12.545Z,17.07
2019-05-07T06:35:42.897Z,16.42
2019-05-07T06:38:12.444Z,17.92
2019-05-07T06:40:52.007Z,16.57
2019-05-07T06:43:25.049Z,17.45
2019-05-07T06:45:57.883Z,16.95
2019-05-07T06:48:38.065Z,17.00
2019-05-07T06:50:59.593Z,17.17
2019-05-07T06:53:28.460Z,17.60
2019-05-07T06:55:57.900Z,17.55
2019-05-07T06:58:41.775Z,17.12
2019-05-07T07:01:14.272Z,16.93
2019-05-07T07:04:02.774Z,15.65
2019-05-07T07:06:33.100Z,16.10
2019-05-07T07:09:02.973Z,15.90
2019-05-07T07:11:38.911Z,15.60
2019-05-07T07:14:07.176Z,17.17
2019-05-07T07:16:35.429Z,15.85
2019-05-07T07:19:03.653Z,14.35
2019-05-07T07:21:32.683Z,15.43
2019-05-07T07:24:03.058Z,16.10
2019-05-07T07:26:32.808Z,15.18
2019-05-07T07:29:02.015Z,14.85
2019-05-07T07:31:32.094Z,14.13
2019-05-07T07:34:02.326Z,13.75
2019-05-07T07:36:32.364Z,13.72
2019-05-07T07:39:02.053Z,15.00
2019-05-07T07:41:42.140Z,15.60
2019-05-07T07:44:10.700Z,14.40
2019-05-07T07:46:38.929Z,14.28
2019-05-07T07:49:11.385Z,14.47
2019-05-07T07:51:41.729Z,14.20
2019-05-07T07:54:07.221Z,14.18
2019-05-07T07:56:50.006Z,13.83
2019-05-07T07:59:24.049Z,14.10
2019-05-07T08:01:53.913Z,14.00
2019-05-07T08:04:22.854Z,14.40
2019-05-07T08:07:03.243Z,14.07
2019-05-07T08:09:34.607Z,12.93
2019-05-07T08:12:03.183Z,12.05
2019-05-07T08:14:32.524Z,13.22
2019-05-07T08:17:02.570Z,12.93
2019-05-07T08:19:32.759Z,12.90
2019-05-07T08:22:02.812Z,13.85
2019-05-07T08:24:32.076Z,15.50
2019-05-07T08:27:02.337Z,15.20
2019-05-07T08:29:32.559Z,13.65
2019-05-07T08:32:04.788Z,13.98
2019-05-07T08:34:34.657Z,13.93
2019-05-07T08:37:02.632Z,14.83
2019-05-07T08:39:32.604Z,11.83
2019-05-07T08:42:02.106Z,12.75
2019-05-07T08:44:35.068Z,12.98
2019-05-07T08:47:22.825Z,12.55
2019-05-07T08:49:52.375Z,12.70
2019-05-07T08:52:22.704Z,13.03
2019-05-07T08:54:51.842Z,13.22
2019-05-07T08:57:22.581Z,12.93
2019-05-07T08:59:58.502Z,12.47
2019-05-07T09:02:22.251Z,13.55
2019-05-07T09:04:52.085Z,13.10
2019-05-07T09:07:21.892Z,12.30
2019-05-07T09:09:52.079Z,13.50
2019-05-07T09:12:19.948Z,13.50
2019-05-07T09:14:48.170Z,12.88
2019-05-07T09:17:16.407Z,12.60
2019-05-07T09:19:51.521Z,11.97
2019-05-07T09:22:14.579Z,12.60
2019-05-07T09:24:42.819Z,12.50
2019-05-07T09:27:27.946Z,13.20
2019-05-07T09:30:02.664Z,12.65
2019-05-07T09:32:42.534Z,12.78
2019-05-07T09:35:18.226Z,12.43
2019-05-07T09:37:46.427Z,11.85
2019-05-07T09:40:14.716Z,12.15
2019-05-07T09:42:42.957Z,11.80
2019-05-07T09:45:12.079Z,11.80
2019-05-07T09:47:41.779Z,12.13
2019-05-07T09:50:11.910Z,12.00
2019-05-07T09:55:51.531Z,11.05
2019-05-07T09:58:33.157Z,12.07
2019-05-07T10:00:49.469Z,11.35
2019-05-07T10:03:17.699Z,12.28
2019-05-07T10:05:45.932Z,11.90
2019-05-07T10:08:14.164Z,11.53
2019-05-07T10:10:43.685Z,12.75
2019-05-07T10:13:19.564Z,13.20
2019-05-07T10:15:47.785Z,13.20
2019-05-07T10:18:17.315Z,12.03
2019-05-07T10:20:45.543Z,12.40
2019-05-07T10:23:22.421Z,13.53
2019-05-07T10:25:50.733Z,12.47
2019-05-07T10:28:18.737Z,13.13
2019-05-07T10:30:46.974Z,13.95
2019-05-07T10:33:15.188Z,13.55
2019-05-07T10:35:43.537Z,14.05
2019-05-07T10:38:12.492Z,13.08
2019-05-07T10:40:40.916Z,14.15
2019-05-07T10:43:09.204Z,13.40
2019-05-07T10:45:45.025Z,13.55
2019-05-07T10:48:18.035Z,13.18
2019-05-07T10:50:56.822Z,13.40
2019-05-07T10:53:25.048Z,13.40
2019-05-07T10:55:53.269Z,13.65
2019-05-07T10:58:21.512Z,13.03
2019-05-07T11:00:52.194Z,13.13
2019-05-07T11:03:21.768Z,13.65
2019-05-07T11:05:49.900Z,13.08
2019-05-07T11:08:18.124Z,13.05
2019-05-07T11:10:46.348Z,13.00
2019-05-07T11:13:14.574Z,12.80
2019-05-07T11:15:44.433Z,12.78
2019-05-07T11:18:17.337Z,13.48
2019-05-07T11:20:50.298Z,13.05
2019-05-07T11:23:15.509Z,14.20
2019-05-07T11:25:43.729Z,13.50
2019-05-07T11:28:12.465Z,11.85
2019-05-07T11:30:42.520Z,13.13
2019-05-07T11:33:12.843Z,12.58
2019-05-07T11:35:42.295Z,13.25
2019-05-07T11:38:18.753Z,13.78
2019-05-07T11:40:42.726Z,14.23
2019-05-07T11:43:29.137Z,14.10
2019-05-07T11:46:17.448Z,14.20
2019-05-07T11:48:56.096Z,14.03
2019-05-07T11:51:37.656Z,14.25
2019-05-07T11:54:16.567Z,14.38
2019-05-07T11:56:44.780Z,13.55
2019-05-07T11:59:13.607Z,14.23
2019-05-07T12:01:47.834Z,12.98
2019-05-07T12:04:16.420Z,13.55
2019-05-07T12:06:44.631Z,14.68
2019-05-07T12:09:13.013Z,14.15
2019-05-07T12:11:42.564Z,15.20
2019-05-07T12:14:12.375Z,15.05
2019-05-07T12:16:42.545Z,14.20
2019-05-07T12:19:13.058Z,13.70
2019-05-07T12:21:42.184Z,14.18
2019-05-07T12:24:12.899Z,13.75
2019-05-07T12:26:41.827Z,14.43
2019-05-07T12:29:11.841Z,14.43
2019-05-07T12:31:55.642Z,13.95
2019-05-07T12:34:31.874Z,14.13
2019-05-07T12:37:01.687Z,14.10
2019-05-07T12:39:31.828Z,14.07
2019-05-07T12:42:00.275Z,15.08
2019-05-07T12:44:28.483Z,13.60
2019-05-07T12:46:56.718Z,13.80
2019-05-07T12:49:24.938Z,15.55
2019-05-07T12:51:54.825Z,14.00
2019-05-07T12:54:26.659Z,13.62
2019-05-07T12:56:54.877Z,14.40
2019-05-07T12:59:23.101Z,13.45
2019-05-07T13:01:55.917Z,13.62
2019-05-07T13:04:28.536Z,13.58
2019-05-07T13:06:58.404Z,12.90
2019-05-07T13:09:26.628Z,13.62
2019-05-07T13:11:54.868Z,12.90
2019-05-07T13:14:23.086Z,13.35
2019-05-07T13:16:52.224Z,12.18
2019-05-07T13:19:22.622Z,12.20
2019-05-07T13:21:50.796Z,12.40
2019-05-07T13:24:19.020Z,11.80
2019-05-07T13:26:47.283Z,11.35
2019-05-07T13:29:15.590Z,10.80
2019-05-07T13:31:43.805Z,10.30
2019-05-07T13:34:12.295Z,10.38
2019-05-07T13:36:42.280Z,10.63
2019-05-07T13:39:12.144Z,11.10
2019-05-07T13:41:42.012Z,10.95
2019-05-07T13:44:27.343Z,10.38
2019-05-07T13:47:13.445Z,11.03
2019-05-07T13:49:42.773Z,10.72
2019-05-07T13:52:11.781Z,11.03
2019-05-07T13:54:41.927Z,10.55
2019-05-07T13:57:12.013Z,10.68
2019-05-07T13:59:42.326Z,10.28
2019-05-07T14:02:15.173Z,10.60
2019-05-07T14:04:42.069Z,10.53
2019-05-07T14:07:12.510Z,11.60
2019-05-07T14:09:42.020Z,10.28
2019-05-07T14:12:12.156Z,9.85
2019-05-07T14:14:42.433Z,9.38
2019-05-07T14:17:10.097Z,8.58
2019-05-07T14:19:38.309Z,10.10
2019-05-07T14:22:15.212Z,9.85
2019-05-07T14:24:36.481Z,9.58
2019-05-07T14:27:04.704Z,9.18
2019-05-07T14:29:32.932Z,10.32
2019-05-07T14:32:02.760Z,9.33
2019-05-07T14:34:34.914Z,10.30
2019-05-07T14:37:06.926Z,8.80
2019-05-07T14:39:35.140Z,8.68
2019-05-07T14:42:07.794Z,8.23
2019-05-07T14:44:48.805Z,9.10
2019-05-07T14:47:19.033Z,8.58
2019-05-07T14:49:47.900Z,7.72
2019-05-07T14:52:28.953Z,7.90
2019-05-07T14:54:46.060Z,7.75
2019-05-07T14:57:14.268Z,9.85
2019-05-07T14:59:42.814Z,8.18
2019-05-07T15:02:12.090Z,8.33
2019-05-07T15:04:41.961Z,8.63
2019-05-07T15:07:12.023Z,8.65
2019-05-07T15:09:42.359Z,8.65
2019-05-07T15:12:12.363Z,9.15
2019-05-07T15:14:42.016Z,8.98
2019-05-07T15:17:14.848Z,9.23
2019-05-07T15:19:43.059Z,8.13
2019-05-07T15:22:23.688Z,7.97
2019-05-07T15:24:52.520Z,8.48
2019-05-07T15:27:22.781Z,7.37
2019-05-07T15:29:52.653Z,7.53
2019-05-07T15:32:21.823Z,7.40
2019-05-07T15:34:52.481Z,7.83
2019-05-07T15:37:20.165Z,8.45
2019-05-07T15:39:48.389Z,8.30
2019-05-07T15:42:16.592Z,8.18
2019-05-07T15:44:44.853Z,8.10
2019-05-07T15:47:14.702Z,8.53
2019-05-07T15:49:42.942Z,8.48
2019-05-07T15:52:15.513Z,7.67
2019-05-07T15:54:43.738Z,7.28
2019-05-07T16:00:06.892Z,7.67
2019-05-07T16:02:36.758Z,7.40
2019-05-07T16:05:05.940Z,145.07
2019-05-07T16:07:34.171Z,243.52
2019-05-07T16:10:02.389Z,392.87
2019-05-07T16:12:31.956Z,184.50
2019-05-07T16:15:00.424Z,25.65
2019-05-07T16:17:32.440Z,66.28
2019-05-07T16:20:00.223Z,9.10
2019-05-07T16:22:30.080Z,8.13
2019-05-07T16:24:58.326Z,7.25
2019-05-07T16:27:26.548Z,9.50
2019-05-07T16:29:54.781Z,7.58
2019-05-07T16:32:24.224Z,7.00
2019-05-07T16:34:52.787Z,7.20
2019-05-07T16:37:21.651Z,6.87
2019-05-07T16:39:50.074Z,6.75
2019-05-07T16:42:18.304Z,6.37
2019-05-07T16:44:46.532Z,7.35
2019-05-07T16:47:14.746Z,7.30
2019-05-07T16:49:42.976Z,6.67
2019-05-07T16:52:12.014Z,5.95
2019-05-07T16:54:42.658Z,6.60
2019-05-07T16:57:14.912Z,7.33
2019-05-07T16:59:43.146Z,6.30
2019-05-07T17:02:13.028Z,7.10
2019-05-07T17:04:42.866Z,5.85
2019-05-07T17:07:13.333Z,6.05
2019-05-07T17:12:12.467Z,5.72
2019-05-07T17:14:42.483Z,5.50
2019-05-07T17:17:12.083Z,5.17
2019-05-07T17:19:42.428Z,5.10
2019-05-07T17:22:12.103Z,4.70
2019-05-07T17:24:42.278Z,4.72
2019-05-07T17:27:11.929Z,5.30
2019-05-07T17:29:40.210Z,5.60
2019-05-07T17:32:12.158Z,5.87
2019-05-07T17:34:41.987Z,5.20
2019-05-07T17:37:12.501Z,4.72
2019-05-07T17:39:39.951Z,5.65
2019-05-07T17:42:08.160Z,5.42
2019-05-07T17:44:36.389Z,4.80
2019-05-07T17:47:04.971Z,4.53
2019-05-07T17:49:36.380Z,5.00
2019-05-07T17:52:03.208Z,5.42
2019-05-07T17:54:31.833Z,5.70
2019-05-07T17:57:02.021Z,5.00
2019-05-07T17:59:31.711Z,4.55
2019-05-07T18:02:04.693Z,4.78
2019-05-07T18:04:47.509Z,5.67
2019-05-07T18:07:04.304Z,5.00
2019-05-07T18:09:32.520Z,5.30
2019-05-07T18:12:00.752Z,6.05
2019-05-07T18:14:28.992Z,5.80
2019-05-07T18:16:58.844Z,6.97
2019-05-07T18:19:28.707Z,6.25
2019-05-07T18:21:56.918Z,6.72
2019-05-07T18:24:25.216Z,6.10
2019-05-07T18:26:53.419Z,6.03
2019-05-07T18:29:22.489Z,6.65
2019-05-07T18:31:55.240Z,6.62
2019-05-07T18:34:23.462Z,7.22
2019-05-07T18:36:53.040Z,6.25
2019-05-07T18:39:21.477Z,5.13
2019-05-07T18:41:49.698Z,5.92
2019-05-07T18:44:22.132Z,5.62
2019-05-07T18:46:49.473Z,6.10
2019-05-07T18:49:17.689Z,6.47
2019-05-07T18:51:45.920Z,6.12
2019-05-07T18:54:26.999Z,4.90
2019-05-07T18:56:44.100Z,5.90
2019-05-07T18:59:12.972Z,5.80
2019-05-07T19:01:42.961Z,5.95
2019-05-07T19:04:12.954Z,5.85
2019-05-07T19:06:42.401Z,5.03
2019-05-07T19:09:10.953Z,5.23
2019-05-07T19:11:39.175Z,5.33
2019-05-07T19:14:07.381Z,6.25
2019-05-07T19:16:35.628Z,5.35
2019-05-07T19:19:03.842Z,5.10
2019-05-07T19:21:32.137Z,4.87
2019-05-07T19:24:02.304Z,5.50
2019-05-07T19:26:30.344Z,6.50
2019-05-07T19:28:58.648Z,6.62
2019-05-07T19:31:26.854Z,6.70
2019-05-07T19:33:55.057Z,7.05
2019-05-07T19:36:23.273Z,6.92
2019-05-07T19:38:52.579Z,8.58
2019-05-07T19:41:20.964Z,8.63
2019-05-07T19:43:49.184Z,6.15
2019-05-07T19:46:17.392Z,6.00
2019-05-07T19:48:45.785Z,7.97
2019-05-07T19:51:13.995Z,8.08
2019-05-07T19:53:42.209Z,6.03
2019-05-07T19:56:14.723Z,6.28
2019-05-07T19:58:42.940Z,7.62
2019-05-07T20:01:12.551Z,6.10
2019-05-07T20:03:40.763Z,6.08
2019-05-07T20:06:08.987Z,6.10
2019-05-07T20:08:37.201Z,6.58
2019-05-07T20:11:11.925Z,5.90
2019-05-07T20:13:41.659Z,5.65
2019-05-07T20:16:14.436Z,4.97
2019-05-07T20:18:42.927Z,5.87
2019-05-07T20:21:12.370Z,5.55
2019-05-07T20:23:42.600Z,5.33
2019-05-07T20:26:12.579Z,5.67
2019-05-07T20:28:41.755Z,9.25
2019-05-07T20:31:12.172Z,7.67
2019-05-07T20:33:42.200Z,6.92
2019-05-07T20:36:10.115Z,7.67
2019-05-07T20:38:38.354Z,39.95
2019-05-07T20:41:06.609Z,13.95
2019-05-07T20:43:34.820Z,14.65
2019-05-07T20:46:03.040Z,20.82
2019-05-07T20:48:32.527Z,12.73
2019-05-07T20:51:00.972Z,13.55
2019-05-07T20:53:47.321Z,12.40
2019-05-07T20:56:17.167Z,11.30
2019-05-07T20:58:45.388Z,11.65
2019-05-07T21:01:13.620Z,10.53
2019-05-07T21:03:42.832Z,9.25
2019-05-07T21:06:11.303Z,9.15
2019-05-07T21:08:39.603Z,8.58
2019-05-07T21:11:07.888Z,9.83
2019-05-07T21:13:36.135Z,12.47
2019-05-07T21:16:04.341Z,9.63
2019-05-07T21:18:32.769Z,9.98
2019-05-07T21:21:02.141Z,9.00
2019-05-07T21:23:32.593Z,8.20
2019-05-07T21:26:02.148Z,10.63
2019-05-07T21:28:32.398Z,10.45
2019-05-07T21:31:02.779Z,9.23
2019-05-07T21:33:32.220Z,8.23
2019-05-07T21:36:02.714Z,7.05
2019-05-07T21:38:32.726Z,8.00
2019-05-07T21:41:00.556Z,8.35
2019-05-07T21:43:28.770Z,8.43
2019-05-07T21:45:57.024Z,8.33
2019-05-07T21:48:25.223Z,8.40
2019-05-07T21:50:54.212Z,8.50
2019-05-07T21:53:26.772Z,8.68
2019-05-07T21:56:13.804Z,8.28
2019-05-07T21:58:46.384Z,8.70
2019-05-07T22:01:18.972Z,7.47
2019-05-07T22:03:48.857Z,8.85
2019-05-07T22:06:17.057Z,8.58
2019-05-07T22:08:45.281Z,7.55
2019-05-07T22:11:13.507Z,8.05
2019-05-07T22:13:43.530Z,8.25
2019-05-07T22:16:13.075Z,8.55
2019-05-07T22:18:42.649Z,7.20
2019-05-07T22:21:12.398Z,7.25
2019-05-07T22:23:42.791Z,7.30
2019-05-07T22:26:20.206Z,7.35
2019-05-07T22:28:41.931Z,6.83
2019-05-07T22:31:21.184Z,7.62
2019-05-07T22:33:59.289Z,7.30
2019-05-07T22:36:26.698Z,6.53
2019-05-07T22:38:54.936Z,6.97
2019-05-07T22:41:23.163Z,6.20
2019-05-07T22:43:51.387Z,6.62
2019-05-07T22:46:22.073Z,6.83
2019-05-07T22:48:49.581Z,6.10
2019-05-07T22:51:17.864Z,6.90
2019-05-07T22:53:46.109Z,7.10
2019-05-07T22:56:14.322Z,7.55
2019-05-07T22:58:44.205Z,6.72
2019-05-07T23:01:14.041Z,6.85
2019-05-07T23:03:42.978Z,6.70
2019-05-07T23:06:12.265Z,6.65
2019-05-07T23:08:42.348Z,7.03
2019-05-07T23:11:12.186Z,6.60
2019-05-07T23:13:42.735Z,6.70
2019-05-07T23:16:12.574Z,6.42
2019-05-07T23:18:42.764Z,8.25
2019-05-07T23:21:10.620Z,6.78
2019-05-07T23:23:38.830Z,6.40
2019-05-07T23:26:07.039Z,6.92
2019-05-07T23:28:35.275Z,6.97
2019-05-07T23:31:03.495Z,7.28
2019-05-07T23:33:32.263Z,7.12
2019-05-07T23:36:02.199Z,6.90
2019-05-07T23:38:31.907Z,7.12
2019-05-07T23:41:14.065Z,8.38
2019-05-07T23:43:42.453Z,7.45
2019-05-07T23:46:12.752Z,7.25
2019-05-07T23:48:42.646Z,6.67
2019-05-07T23:51:12.520Z,7.03
2019-05-07T23:53:44.134Z,7.83
2019-05-07T23:56:10.465Z,7.45
2019-05-07T23:58:38.686Z,7.92
